sensor_id;sensor_type;location;lat;lon;timestamp;temperature;humidity
24800;DHT22;12897;50.812;4.430;2023-02-21T00:00:04;8.20;99.90
24800;DHT22;12897;50.812;4.430;2023-02-21T00:02:49;8.10;99.90
24800;DHT22;12897;50.812;4.430;2023-02-21T00:05:35;8.10;99.90
24800;DHT22;12897;50.812;4.430;2023-02-21T00:08:20;8.10;99.90
24800;DHT22;12897;50.812;4.430;2023-02-21T00:11:06;8.10;99.90
24800;DHT22;12897;50.812;4.430;2023-02-21T00:13:52;8.00;99.90
24800;DHT22;12897;50.812;4.430;2023-02-21T00:16:37;8.10;99.90
24800;DHT22;12897;50.812;4.430;2023-02-21T00:19:23;8.20;99.90
24800;DHT22;12897;50.812;4.430;2023-02-21T00:22:09;8.30;99.90
24800;DHT22;12897;50.812;4.430;2023-02-21T00:24:54;8.50;99.90
24800;DHT22;12897;50.812;4.430;2023-02-21T00:27:40;8.60;99.90
24800;DHT22;12897;50.812;4.430;2023-02-21T00:30:26;8.50;99.90
24800;DHT22;12897;50.812;4.430;2023-02-21T00:33:11;8.40;99.90
24800;DHT22;12897;50.812;4.430;2023-02-21T00:35:57;8.50;99.90
24800;DHT22;12897;50.812;4.430;2023-02-21T00:38:42;8.50;99.90
24800;DHT22;12897;50.812;4.430;2023-02-21T00:41:28;8.60;99.90
24800;DHT22;12897;50.812;4.430;2023-02-21T00:44:14;8.60;99.90
24800;DHT22;12897;50.812;4.430;2023-02-21T00:46:59;8.80;99.90
24800;DHT22;12897;50.812;4.430;2023-02-21T00:49:45;8.60;99.90
24800;DHT22;12897;50.812;4.430;2023-02-21T00:52:30;8.70;99.90
24800;DHT22;12897;50.812;4.430;2023-02-21T00:55:16;8.60;99.90
24800;DHT22;12897;50.812;4.430;2023-02-21T00:58:01;8.60;99.90
24800;DHT22;12897;50.812;4.430;2023-02-21T01:00:48;8.60;99.90
24800;DHT22;12897;50.812;4.430;2023-02-21T01:03:34;8.60;99.90
24800;DHT22;12897;50.812;4.430;2023-02-21T01:06:20;8.60;99.90
24800;DHT22;12897;50.812;4.430;2023-02-21T01:09:05;8.60;99.90
24800;DHT22;12897;50.812;4.430;2023-02-21T01:11:51;8.60;99.90
24800;DHT22;12897;50.812;4.430;2023-02-21T01:14:36;8.50;99.90
24800;DHT22;12897;50.812;4.430;2023-02-21T01:17:22;8.50;99.90
24800;DHT22;12897;50.812;4.430;2023-02-21T01:20:07;8.40;99.90
24800;DHT22;12897;50.812;4.430;2023-02-21T01:22:53;8.30;99.90
24800;DHT22;12897;50.812;4.430;2023-02-21T01:25:39;8.30;99.90
24800;DHT22;12897;50.812;4.430;2023-02-21T01:28:25;8.20;99.90
24800;DHT22;12897;50.812;4.430;2023-02-21T01:31:10;8.30;99.90
24800;DHT22;12897;50.812;4.430;2023-02-21T01:33:56;8.10;99.90
24800;DHT22;12897;50.812;4.430;2023-02-21T01:36:42;8.10;99.90
24800;DHT22;12897;50.812;4.430;2023-02-21T01:39:27;8.20;99.90
24800;DHT22;12897;50.812;4.430;2023-02-21T01:42:13;8.30;99.90
24800;DHT22;12897;50.812;4.430;2023-02-21T01:48:12;8.20;99.90
24800;DHT22;12897;50.812;4.430;2023-02-21T01:50:59;8.20;99.90
24800;DHT22;12897;50.812;4.430;2023-02-21T01:53:45;8.20;99.90
24800;DHT22;12897;50.812;4.430;2023-02-21T01:56:32;8.30;99.90
24800;DHT22;12897;50.812;4.430;2023-02-21T01:59:20;8.20;99.90
24800;DHT22;12897;50.812;4.430;2023-02-21T02:05:08;8.00;99.90
24800;DHT22;12897;50.812;4.430;2023-02-21T02:07:54;8.00;99.90
24800;DHT22;12897;50.812;4.430;2023-02-21T02:10:42;8.00;99.90
24800;DHT22;12897;50.812;4.430;2023-02-21T02:13:55;8.00;99.90
24800;DHT22;12897;50.812;4.430;2023-02-21T02:16:44;8.10;99.90
24800;DHT22;12897;50.812;4.430;2023-02-21T02:19:40;8.10;99.90
24800;DHT22;12897;50.812;4.430;2023-02-21T02:24:57;8.10;99.90
24800;DHT22;12897;50.812;4.430;2023-02-21T02:30:26;8.30;99.90
24800;DHT22;12897;50.812;4.430;2023-02-21T02:35:51;8.40;99.90
24800;DHT22;12897;50.812;4.430;2023-02-21T02:38:22;8.40;99.90
24800;DHT22;12897;50.812;4.430;2023-02-21T02:41:01;8.50;99.90
24800;DHT22;12897;50.812;4.430;2023-02-21T02:46:26;8.40;99.90
24800;DHT22;12897;50.812;4.430;2023-02-21T02:49:05;8.40;99.90
24800;DHT22;12897;50.812;4.430;2023-02-21T02:51:34;8.40;99.90
24800;DHT22;12897;50.812;4.430;2023-02-21T02:54:02;8.40;99.90
24800;DHT22;12897;50.812;4.430;2023-02-21T02:56:29;8.30;99.90
24800;DHT22;12897;50.812;4.430;2023-02-21T02:59:02;8.40;99.90
24800;DHT22;12897;50.812;4.430;2023-02-21T03:01:55;8.40;99.90
24800;DHT22;12897;50.812;4.430;2023-02-21T03:04:43;8.40;99.90
24800;DHT22;12897;50.812;4.430;2023-02-21T03:07:16;8.40;99.90
24800;DHT22;12897;50.812;4.430;2023-02-21T03:12:37;8.40;99.90
24800;DHT22;12897;50.812;4.430;2023-02-21T03:15:15;8.20;99.90
24800;DHT22;12897;50.812;4.430;2023-02-21T03:17:50;8.40;99.90
24800;DHT22;12897;50.812;4.430;2023-02-21T03:20:14;8.40;99.90
24800;DHT22;12897;50.812;4.430;2023-02-21T03:22:43;8.60;99.90
24800;DHT22;12897;50.812;4.430;2023-02-21T03:25:13;8.60;99.90
24800;DHT22;12897;50.812;4.430;2023-02-21T03:27:42;8.50;99.90
24800;DHT22;12897;50.812;4.430;2023-02-21T03:30:11;8.40;99.90
24800;DHT22;12897;50.812;4.430;2023-02-21T03:32:48;8.40;99.90
24800;DHT22;12897;50.812;4.430;2023-02-21T03:35:18;8.50;99.90
24800;DHT22;12897;50.812;4.430;2023-02-21T03:37:48;8.60;99.90
24800;DHT22;12897;50.812;4.430;2023-02-21T03:40:23;8.50;99.90
24800;DHT22;12897;50.812;4.430;2023-02-21T03:42:51;8.50;99.90
24800;DHT22;12897;50.812;4.430;2023-02-21T03:45:20;8.40;99.90
24800;DHT22;12897;50.812;4.430;2023-02-21T03:47:48;8.50;99.90
24800;DHT22;12897;50.812;4.430;2023-02-21T03:50:15;8.50;99.90
24800;DHT22;12897;50.812;4.430;2023-02-21T03:52:43;8.70;99.90
24800;DHT22;12897;50.812;4.430;2023-02-21T03:55:11;8.70;99.90
24800;DHT22;12897;50.812;4.430;2023-02-21T03:57:38;8.70;99.90
24800;DHT22;12897;50.812;4.430;2023-02-21T04:00:06;8.60;99.90
24800;DHT22;12897;50.812;4.430;2023-02-21T04:02:35;8.60;99.90
24800;DHT22;12897;50.812;4.430;2023-02-21T04:05:03;8.50;99.90
24800;DHT22;12897;50.812;4.430;2023-02-21T04:07:31;8.50;99.90
24800;DHT22;12897;50.812;4.430;2023-02-21T04:09:58;8.40;99.90
24800;DHT22;12897;50.812;4.430;2023-02-21T04:12:26;8.40;99.90
24800;DHT22;12897;50.812;4.430;2023-02-21T04:14:53;8.50;99.90
24800;DHT22;12897;50.812;4.430;2023-02-21T04:17:23;8.30;99.90
24800;DHT22;12897;50.812;4.430;2023-02-21T04:19:51;8.40;99.90
24800;DHT22;12897;50.812;4.430;2023-02-21T04:22:19;8.50;99.90
24800;DHT22;12897;50.812;4.430;2023-02-21T04:24:47;8.30;99.90
24800;DHT22;12897;50.812;4.430;2023-02-21T04:27:15;8.30;99.90
24800;DHT22;12897;50.812;4.430;2023-02-21T04:29:42;8.20;99.90
24800;DHT22;12897;50.812;4.430;2023-02-21T04:32:10;8.30;99.90
24800;DHT22;12897;50.812;4.430;2023-02-21T04:34:37;8.40;99.90
24800;DHT22;12897;50.812;4.430;2023-02-21T04:37:05;8.40;99.90
24800;DHT22;12897;50.812;4.430;2023-02-21T04:39:32;8.40;99.90
24800;DHT22;12897;50.812;4.430;2023-02-21T04:42:00;8.50;99.90
24800;DHT22;12897;50.812;4.430;2023-02-21T04:44:28;8.50;99.90
24800;DHT22;12897;50.812;4.430;2023-02-21T04:46:55;8.60;99.90
24800;DHT22;12897;50.812;4.430;2023-02-21T04:49:22;8.50;99.90
24800;DHT22;12897;50.812;4.430;2023-02-21T04:51:52;8.50;99.90
24800;DHT22;12897;50.812;4.430;2023-02-21T04:54:20;8.60;99.90
24800;DHT22;12897;50.812;4.430;2023-02-21T04:56:48;8.60;99.90
24800;DHT22;12897;50.812;4.430;2023-02-21T04:59:16;8.60;99.90
24800;DHT22;12897;50.812;4.430;2023-02-21T05:01:43;8.60;99.90
24800;DHT22;12897;50.812;4.430;2023-02-21T05:04:11;8.50;99.90
24800;DHT22;12897;50.812;4.430;2023-02-21T05:06:38;8.60;99.90
24800;DHT22;12897;50.812;4.430;2023-02-21T05:09:06;8.40;99.90
24800;DHT22;12897;50.812;4.430;2023-02-21T05:11:34;8.40;99.90
24800;DHT22;12897;50.812;4.430;2023-02-21T05:14:02;8.40;99.90
24800;DHT22;12897;50.812;4.430;2023-02-21T05:16:30;8.30;99.90
24800;DHT22;12897;50.812;4.430;2023-02-21T05:18:57;8.30;99.90
24800;DHT22;12897;50.812;4.430;2023-02-21T05:21:25;8.30;99.90
24800;DHT22;12897;50.812;4.430;2023-02-21T05:23:52;8.20;99.90
24800;DHT22;12897;50.812;4.430;2023-02-21T05:26:27;8.20;99.90
24800;DHT22;12897;50.812;4.430;2023-02-21T05:28:56;8.20;99.90
24800;DHT22;12897;50.812;4.430;2023-02-21T05:31:24;8.20;99.90
24800;DHT22;12897;50.812;4.430;2023-02-21T05:33:52;8.10;99.90
24800;DHT22;12897;50.812;4.430;2023-02-21T05:36:20;8.10;99.90
24800;DHT22;12897;50.812;4.430;2023-02-21T05:38:52;8.10;99.90
24800;DHT22;12897;50.812;4.430;2023-02-21T05:41:20;8.20;99.90
24800;DHT22;12897;50.812;4.430;2023-02-21T05:43:49;8.20;99.90
24800;DHT22;12897;50.812;4.430;2023-02-21T05:46:23;8.20;99.90
24800;DHT22;12897;50.812;4.430;2023-02-21T05:48:50;8.00;99.90
24800;DHT22;12897;50.812;4.430;2023-02-21T05:51:19;8.00;99.90
24800;DHT22;12897;50.812;4.430;2023-02-21T05:53:47;8.10;99.90
24800;DHT22;12897;50.812;4.430;2023-02-21T05:56:15;8.10;99.90
24800;DHT22;12897;50.812;4.430;2023-02-21T05:58:43;8.20;99.90
24800;DHT22;12897;50.812;4.430;2023-02-21T06:01:11;8.20;99.90
24800;DHT22;12897;50.812;4.430;2023-02-21T06:03:38;8.30;99.90
24800;DHT22;12897;50.812;4.430;2023-02-21T06:06:06;8.30;99.90
24800;DHT22;12897;50.812;4.430;2023-02-21T06:08:42;8.10;99.90
24800;DHT22;12897;50.812;4.430;2023-02-21T06:11:09;8.20;99.90
24800;DHT22;12897;50.812;4.430;2023-02-21T06:13:37;8.10;99.90
24800;DHT22;12897;50.812;4.430;2023-02-21T06:16:05;8.10;99.90
24800;DHT22;12897;50.812;4.430;2023-02-21T06:18:32;7.90;99.90
24800;DHT22;12897;50.812;4.430;2023-02-21T06:21:00;8.10;99.90
24800;DHT22;12897;50.812;4.430;2023-02-21T06:23:27;8.20;99.90
24800;DHT22;12897;50.812;4.430;2023-02-21T06:25:55;8.10;99.90
24800;DHT22;12897;50.812;4.430;2023-02-21T06:28:31;8.10;99.90
24800;DHT22;12897;50.812;4.430;2023-02-21T06:30:56;8.00;99.90
24800;DHT22;12897;50.812;4.430;2023-02-21T06:33:24;7.90;99.90
24800;DHT22;12897;50.812;4.430;2023-02-21T06:35:52;8.00;99.90
24800;DHT22;12897;50.812;4.430;2023-02-21T06:38:19;7.90;99.90
24800;DHT22;12897;50.812;4.430;2023-02-21T06:40:47;8.00;99.90
24800;DHT22;12897;50.812;4.430;2023-02-21T06:43:14;8.00;99.90
24800;DHT22;12897;50.812;4.430;2023-02-21T06:45:43;8.10;99.90
24800;DHT22;12897;50.812;4.430;2023-02-21T06:48:15;8.20;99.90
24800;DHT22;12897;50.812;4.430;2023-02-21T06:50:43;8.40;99.90
24800;DHT22;12897;50.812;4.430;2023-02-21T06:53:10;8.50;99.90
24800;DHT22;12897;50.812;4.430;2023-02-21T06:55:38;8.50;99.90
24800;DHT22;12897;50.812;4.430;2023-02-21T06:58:06;8.40;99.90
24800;DHT22;12897;50.812;4.430;2023-02-21T07:00:34;8.20;99.90
24800;DHT22;12897;50.812;4.430;2023-02-21T07:03:02;8.30;99.90
24800;DHT22;12897;50.812;4.430;2023-02-21T07:05:30;8.30;99.90
24800;DHT22;12897;50.812;4.430;2023-02-21T07:08:01;8.40;99.90
24800;DHT22;12897;50.812;4.430;2023-02-21T07:10:29;8.50;99.90
24800;DHT22;12897;50.812;4.430;2023-02-21T07:12:57;8.70;99.90
24800;DHT22;12897;50.812;4.430;2023-02-21T07:15:24;8.70;99.90
24800;DHT22;12897;50.812;4.430;2023-02-21T07:17:52;8.70;99.90
24800;DHT22;12897;50.812;4.430;2023-02-21T07:20:19;8.70;99.90
24800;DHT22;12897;50.812;4.430;2023-02-21T07:22:47;8.60;99.90
24800;DHT22;12897;50.812;4.430;2023-02-21T07:25:16;8.70;99.90
24800;DHT22;12897;50.812;4.430;2023-02-21T07:27:49;8.60;99.90
24800;DHT22;12897;50.812;4.430;2023-02-21T07:30:18;8.30;99.90
24800;DHT22;12897;50.812;4.430;2023-02-21T07:32:46;8.40;99.90
24800;DHT22;12897;50.812;4.430;2023-02-21T07:35:13;8.20;99.90
24800;DHT22;12897;50.812;4.430;2023-02-21T07:37:41;8.20;99.90
24800;DHT22;12897;50.812;4.430;2023-02-21T07:40:09;8.30;99.90
24800;DHT22;12897;50.812;4.430;2023-02-21T07:42:36;8.30;99.90
24800;DHT22;12897;50.812;4.430;2023-02-21T07:45:07;8.30;99.90
24800;DHT22;12897;50.812;4.430;2023-02-21T07:47:35;8.30;99.90
24800;DHT22;12897;50.812;4.430;2023-02-21T07:50:02;8.30;99.90
24800;DHT22;12897;50.812;4.430;2023-02-21T07:52:31;8.40;99.90
24800;DHT22;12897;50.812;4.430;2023-02-21T07:54:59;8.50;99.90
24800;DHT22;12897;50.812;4.430;2023-02-21T07:57:27;8.40;99.90
24800;DHT22;12897;50.812;4.430;2023-02-21T07:59:54;8.50;99.90
24800;DHT22;12897;50.812;4.430;2023-02-21T08:02:22;8.60;99.90
24800;DHT22;12897;50.812;4.430;2023-02-21T08:04:50;8.70;99.90
24800;DHT22;12897;50.812;4.430;2023-02-21T08:07:18;8.70;99.90
24800;DHT22;12897;50.812;4.430;2023-02-21T08:09:47;8.70;99.90
24800;DHT22;12897;50.812;4.430;2023-02-21T08:12:15;8.50;99.90
24800;DHT22;12897;50.812;4.430;2023-02-21T08:14:43;8.40;99.90
24800;DHT22;12897;50.812;4.430;2023-02-21T08:17:13;8.30;99.90
24800;DHT22;12897;50.812;4.430;2023-02-21T08:19:39;8.20;99.90
24800;DHT22;12897;50.812;4.430;2023-02-21T08:22:07;8.40;99.90
24800;DHT22;12897;50.812;4.430;2023-02-21T08:24:34;8.50;99.90
24800;DHT22;12897;50.812;4.430;2023-02-21T08:27:02;8.50;99.90
24800;DHT22;12897;50.812;4.430;2023-02-21T08:29:29;8.70;99.90
24800;DHT22;12897;50.812;4.430;2023-02-21T08:31:57;8.80;99.90
24800;DHT22;12897;50.812;4.430;2023-02-21T08:34:24;8.80;99.90
24800;DHT22;12897;50.812;4.430;2023-02-21T08:36:54;8.90;99.90
24800;DHT22;12897;50.812;4.430;2023-02-21T08:39:22;8.90;99.90
24800;DHT22;12897;50.812;4.430;2023-02-21T08:41:50;8.80;99.90
24800;DHT22;12897;50.812;4.430;2023-02-21T08:44:18;8.70;99.90
24800;DHT22;12897;50.812;4.430;2023-02-21T08:46:48;8.70;99.90
24800;DHT22;12897;50.812;4.430;2023-02-21T08:49:15;8.80;99.90
24800;DHT22;12897;50.812;4.430;2023-02-21T08:51:43;8.90;99.90
24800;DHT22;12897;50.812;4.430;2023-02-21T08:54:10;9.00;99.90
24800;DHT22;12897;50.812;4.430;2023-02-21T08:56:40;9.10;99.90
24800;DHT22;12897;50.812;4.430;2023-02-21T08:59:08;9.20;99.90
24800;DHT22;12897;50.812;4.430;2023-02-21T09:01:36;9.20;99.90
24800;DHT22;12897;50.812;4.430;2023-02-21T09:04:04;9.20;99.90
24800;DHT22;12897;50.812;4.430;2023-02-21T09:06:32;9.30;99.90
24800;DHT22;12897;50.812;4.430;2023-02-21T09:09:00;9.30;99.90
24800;DHT22;12897;50.812;4.430;2023-02-21T09:11:29;9.10;99.90
24800;DHT22;12897;50.812;4.430;2023-02-21T09:13:56;9.20;99.90
24800;DHT22;12897;50.812;4.430;2023-02-21T09:16:24;9.20;99.90
24800;DHT22;12897;50.812;4.430;2023-02-21T09:18:57;9.00;99.90
24800;DHT22;12897;50.812;4.430;2023-02-21T09:21:28;9.10;99.90
24800;DHT22;12897;50.812;4.430;2023-02-21T09:24:01;8.90;99.90
24800;DHT22;12897;50.812;4.430;2023-02-21T09:26:31;8.90;99.90
24800;DHT22;12897;50.812;4.430;2023-02-21T09:28:58;9.00;99.90
24800;DHT22;12897;50.812;4.430;2023-02-21T09:31:34;8.90;99.90
24800;DHT22;12897;50.812;4.430;2023-02-21T09:34:03;9.10;99.90
24800;DHT22;12897;50.812;4.430;2023-02-21T09:36:36;9.10;99.90
24800;DHT22;12897;50.812;4.430;2023-02-21T09:39:05;9.10;99.90
24800;DHT22;12897;50.812;4.430;2023-02-21T09:41:35;9.10;99.90
24800;DHT22;12897;50.812;4.430;2023-02-21T09:44:11;9.00;99.90
24800;DHT22;12897;50.812;4.430;2023-02-21T09:46:50;9.10;99.90
24800;DHT22;12897;50.812;4.430;2023-02-21T09:49:24;9.20;99.90
24800;DHT22;12897;50.812;4.430;2023-02-21T09:51:53;9.40;99.90
24800;DHT22;12897;50.812;4.430;2023-02-21T09:54:32;9.40;99.90
24800;DHT22;12897;50.812;4.430;2023-02-21T09:57:02;9.30;99.90
24800;DHT22;12897;50.812;4.430;2023-02-21T09:59:30;9.20;99.90
24800;DHT22;12897;50.812;4.430;2023-02-21T10:10:28;9.00;99.90
24800;DHT22;12897;50.812;4.430;2023-02-21T10:15:52;8.80;99.90
24800;DHT22;12897;50.812;4.430;2023-02-21T10:18:57;8.90;99.90
24800;DHT22;12897;50.812;4.430;2023-02-21T10:21:30;8.80;99.90
24800;DHT22;12897;50.812;4.430;2023-02-21T10:23:58;8.90;99.90
24800;DHT22;12897;50.812;4.430;2023-02-21T10:26:30;8.90;99.90
24800;DHT22;12897;50.812;4.430;2023-02-21T10:28:58;8.80;99.90
24800;DHT22;12897;50.812;4.430;2023-02-21T10:34:02;8.80;99.90
24800;DHT22;12897;50.812;4.430;2023-02-21T10:36:29;8.80;99.90
24800;DHT22;12897;50.812;4.430;2023-02-21T10:41:39;8.60;99.90
24800;DHT22;12897;50.812;4.430;2023-02-21T10:44:42;8.70;99.90
24800;DHT22;12897;50.812;4.430;2023-02-21T10:46:54;8.70;99.90
24800;DHT22;12897;50.812;4.430;2023-02-21T10:49:30;8.90;99.90
24800;DHT22;12897;50.812;4.430;2023-02-21T10:52:09;9.10;99.90
24800;DHT22;12897;50.812;4.430;2023-02-21T10:54:39;9.20;99.90
24800;DHT22;12897;50.812;4.430;2023-02-21T10:57:09;9.20;99.90
24800;DHT22;12897;50.812;4.430;2023-02-21T10:59:40;9.30;99.90
24800;DHT22;12897;50.812;4.430;2023-02-21T11:02:33;9.40;99.90
24800;DHT22;12897;50.812;4.430;2023-02-21T11:07:41;9.30;99.90
24800;DHT22;12897;50.812;4.430;2023-02-21T11:10:41;9.50;99.90
24800;DHT22;12897;50.812;4.430;2023-02-21T11:13:23;9.30;99.90
24800;DHT22;12897;50.812;4.430;2023-02-21T11:15:48;9.30;99.90
24800;DHT22;12897;50.812;4.430;2023-02-21T11:18:22;9.50;99.90
24800;DHT22;12897;50.812;4.430;2023-02-21T11:20:52;9.60;99.90
24800;DHT22;12897;50.812;4.430;2023-02-21T11:23:23;9.90;99.90
24800;DHT22;12897;50.812;4.430;2023-02-21T11:25:55;9.90;99.90
24800;DHT22;12897;50.812;4.430;2023-02-21T11:28:22;10.00;99.90
24800;DHT22;12897;50.812;4.430;2023-02-21T11:33:30;10.10;99.90
24800;DHT22;12897;50.812;4.430;2023-02-21T11:36:16;10.20;99.90
24800;DHT22;12897;50.812;4.430;2023-02-21T11:38:59;10.10;99.90
24800;DHT22;12897;50.812;4.430;2023-02-21T11:41:36;10.10;99.90
24800;DHT22;12897;50.812;4.430;2023-02-21T11:44:00;10.00;99.90
24800;DHT22;12897;50.812;4.430;2023-02-21T11:46:47;9.80;99.90
24800;DHT22;12897;50.812;4.430;2023-02-21T11:51:58;10.10;99.90
24800;DHT22;12897;50.812;4.430;2023-02-21T11:54:28;10.10;99.90
24800;DHT22;12897;50.812;4.430;2023-02-21T11:57:00;10.20;99.90
24800;DHT22;12897;50.812;4.430;2023-02-21T12:04:55;10.20;99.90
24800;DHT22;12897;50.812;4.430;2023-02-21T12:10:05;10.20;99.90
24800;DHT22;12897;50.812;4.430;2023-02-21T12:12:40;10.00;99.90
24800;DHT22;12897;50.812;4.430;2023-02-21T12:16:07;10.20;99.90
24800;DHT22;12897;50.812;4.430;2023-02-21T12:17:51;10.10;99.90
24800;DHT22;12897;50.812;4.430;2023-02-21T12:26:05;10.30;99.90
24800;DHT22;12897;50.812;4.430;2023-02-21T12:31:44;10.40;99.90
24800;DHT22;12897;50.812;4.430;2023-02-21T12:34:28;10.50;99.90
24800;DHT22;12897;50.812;4.430;2023-02-21T12:37:13;10.50;99.90
24800;DHT22;12897;50.812;4.430;2023-02-21T12:48:33;10.10;99.90
24800;DHT22;12897;50.812;4.430;2023-02-21T12:51:02;10.10;99.90
24800;DHT22;12897;50.812;4.430;2023-02-21T12:53:43;10.20;99.90
24800;DHT22;12897;50.812;4.430;2023-02-21T13:02:24;10.60;99.90
24800;DHT22;12897;50.812;4.430;2023-02-21T13:04:54;10.80;99.90
24800;DHT22;12897;50.812;4.430;2023-02-21T13:07:42;10.80;99.90
24800;DHT22;12897;50.812;4.430;2023-02-21T13:10:19;10.80;99.90
24800;DHT22;12897;50.812;4.430;2023-02-21T13:12:59;10.70;99.90
24800;DHT22;12897;50.812;4.430;2023-02-21T13:15:30;10.80;99.90
24800;DHT22;12897;50.812;4.430;2023-02-21T13:18:03;10.80;99.90
24800;DHT22;12897;50.812;4.430;2023-02-21T13:20:39;11.00;99.90
24800;DHT22;12897;50.812;4.430;2023-02-21T13:29:02;11.00;99.90
24800;DHT22;12897;50.812;4.430;2023-02-21T13:31:34;11.10;99.90
24800;DHT22;12897;50.812;4.430;2023-02-21T13:34:06;11.10;99.90
24800;DHT22;12897;50.812;4.430;2023-02-21T13:36:43;11.00;99.90
24800;DHT22;12897;50.812;4.430;2023-02-21T13:39:18;11.10;99.90
24800;DHT22;12897;50.812;4.430;2023-02-21T13:41:52;11.10;99.90
24800;DHT22;12897;50.812;4.430;2023-02-21T13:44:32;11.10;99.90
24800;DHT22;12897;50.812;4.430;2023-02-21T13:47:11;11.00;99.90
24800;DHT22;12897;50.812;4.430;2023-02-21T13:50:01;11.10;99.90
24800;DHT22;12897;50.812;4.430;2023-02-21T13:52:49;11.10;99.90
24800;DHT22;12897;50.812;4.430;2023-02-21T13:57:46;10.90;99.90
24800;DHT22;12897;50.812;4.430;2023-02-21T14:13:45;11.10;99.90
24800;DHT22;12897;50.812;4.430;2023-02-21T14:16:17;11.20;99.90
24800;DHT22;12897;50.812;4.430;2023-02-21T14:18:57;11.00;99.90
24800;DHT22;12897;50.812;4.430;2023-02-21T14:21:40;10.90;99.90
24800;DHT22;12897;50.812;4.430;2023-02-21T14:24:16;11.00;99.90
24800;DHT22;12897;50.812;4.430;2023-02-21T14:26:55;11.20;99.90
24800;DHT22;12897;50.812;4.430;2023-02-21T14:29:38;11.20;99.90
24800;DHT22;12897;50.812;4.430;2023-02-21T14:34:50;11.10;99.90
24800;DHT22;12897;50.812;4.430;2023-02-21T14:37:32;11.10;99.90
24800;DHT22;12897;50.812;4.430;2023-02-21T14:40:02;10.90;99.90
24800;DHT22;12897;50.812;4.430;2023-02-21T14:45:39;11.10;99.90
24800;DHT22;12897;50.812;4.430;2023-02-21T14:48:04;11.10;99.90
24800;DHT22;12897;50.812;4.430;2023-02-21T14:54:05;11.10;99.90
24800;DHT22;12897;50.812;4.430;2023-02-21T14:56:17;11.30;99.90
24800;DHT22;12897;50.812;4.430;2023-02-21T15:04:18;11.50;99.90
24800;DHT22;12897;50.812;4.430;2023-02-21T15:06:59;11.50;99.90
24800;DHT22;12897;50.812;4.430;2023-02-21T15:09:26;11.30;99.90
24800;DHT22;12897;50.812;4.430;2023-02-21T15:11:54;11.40;99.90
24800;DHT22;12897;50.812;4.430;2023-02-21T15:14:27;11.40;99.90
24800;DHT22;12897;50.812;4.430;2023-02-21T15:16:57;11.40;99.90
24800;DHT22;12897;50.812;4.430;2023-02-21T15:19:31;11.40;99.90
24800;DHT22;12897;50.812;4.430;2023-02-21T15:22:29;11.50;99.90
24800;DHT22;12897;50.812;4.430;2023-02-21T15:27:33;11.50;99.90
24800;DHT22;12897;50.812;4.430;2023-02-21T15:30:16;11.40;99.90
24800;DHT22;12897;50.812;4.430;2023-02-21T15:33:00;11.30;99.90
24800;DHT22;12897;50.812;4.430;2023-02-21T15:35:35;11.30;99.90
24800;DHT22;12897;50.812;4.430;2023-02-21T15:38:06;11.40;99.90
24800;DHT22;12897;50.812;4.430;2023-02-21T15:40:35;11.40;99.90
24800;DHT22;12897;50.812;4.430;2023-02-21T15:43:04;11.30;99.90
24800;DHT22;12897;50.812;4.430;2023-02-21T15:45:46;11.30;99.90
24800;DHT22;12897;50.812;4.430;2023-02-21T15:48:16;11.20;99.90
24800;DHT22;12897;50.812;4.430;2023-02-21T15:50:45;11.20;99.90
24800;DHT22;12897;50.812;4.430;2023-02-21T15:53:19;11.20;99.90
24800;DHT22;12897;50.812;4.430;2023-02-21T15:55:48;11.10;99.90
24800;DHT22;12897;50.812;4.430;2023-02-21T15:58:19;11.00;99.90
24800;DHT22;12897;50.812;4.430;2023-02-21T16:01:04;11.00;99.90
24800;DHT22;12897;50.812;4.430;2023-02-21T16:03:38;10.90;99.90
24800;DHT22;12897;50.812;4.430;2023-02-21T16:09:00;10.80;99.90
24800;DHT22;12897;50.812;4.430;2023-02-21T16:17:18;10.80;99.90
24800;DHT22;12897;50.812;4.430;2023-02-21T16:19:46;10.70;99.90
24800;DHT22;12897;50.812;4.430;2023-02-21T16:22:24;10.70;99.90
24800;DHT22;12897;50.812;4.430;2023-02-21T16:25:06;10.60;99.90
24800;DHT22;12897;50.812;4.430;2023-02-21T16:27:34;10.50;99.90
24800;DHT22;12897;50.812;4.430;2023-02-21T16:30:02;10.60;99.90
24800;DHT22;12897;50.812;4.430;2023-02-21T16:32:31;10.50;99.90
24800;DHT22;12897;50.812;4.430;2023-02-21T16:35:00;10.40;99.90
24800;DHT22;12897;50.812;4.430;2023-02-21T16:37:27;10.50;99.90
24800;DHT22;12897;50.812;4.430;2023-02-21T16:39:55;10.50;99.90
24800;DHT22;12897;50.812;4.430;2023-02-21T16:42:23;10.60;99.90
24800;DHT22;12897;50.812;4.430;2023-02-21T16:44:50;10.50;99.90
24800;DHT22;12897;50.812;4.430;2023-02-21T16:47:19;10.50;99.90
24800;DHT22;12897;50.812;4.430;2023-02-21T16:49:47;10.40;99.90
24800;DHT22;12897;50.812;4.430;2023-02-21T16:52:15;10.40;99.90
24800;DHT22;12897;50.812;4.430;2023-02-21T16:54:43;10.20;99.90
24800;DHT22;12897;50.812;4.430;2023-02-21T16:57:10;10.00;99.90
24800;DHT22;12897;50.812;4.430;2023-02-21T16:59:38;9.90;99.90
24800;DHT22;12897;50.812;4.430;2023-02-21T17:02:08;9.80;99.90
24800;DHT22;12897;50.812;4.430;2023-02-21T17:04:36;9.70;99.90
24800;DHT22;12897;50.812;4.430;2023-02-21T17:07:05;9.60;99.90
24800;DHT22;12897;50.812;4.430;2023-02-21T17:09:34;9.50;99.90
24800;DHT22;12897;50.812;4.430;2023-02-21T17:12:06;9.50;99.90
24800;DHT22;12897;50.812;4.430;2023-02-21T17:14:34;9.50;99.90
24800;DHT22;12897;50.812;4.430;2023-02-21T17:17:01;9.50;99.90
24800;DHT22;12897;50.812;4.430;2023-02-21T17:19:29;9.40;99.90
24800;DHT22;12897;50.812;4.430;2023-02-21T17:21:56;9.30;99.90
24800;DHT22;12897;50.812;4.430;2023-02-21T17:24:25;9.30;99.90
24800;DHT22;12897;50.812;4.430;2023-02-21T17:26:53;9.20;99.90
24800;DHT22;12897;50.812;4.430;2023-02-21T17:29:21;9.00;99.90
24800;DHT22;12897;50.812;4.430;2023-02-21T17:31:55;9.00;99.90
24800;DHT22;12897;50.812;4.430;2023-02-21T17:34:24;8.80;99.90
24800;DHT22;12897;50.812;4.430;2023-02-21T17:36:52;8.60;99.90
24800;DHT22;12897;50.812;4.430;2023-02-21T17:39:21;8.60;99.90
24800;DHT22;12897;50.812;4.430;2023-02-21T17:41:49;8.50;99.90
24800;DHT22;12897;50.812;4.430;2023-02-21T17:44:17;8.60;99.90
24800;DHT22;12897;50.812;4.430;2023-02-21T17:46:47;8.50;99.90
24800;DHT22;12897;50.812;4.430;2023-02-21T17:49:19;8.40;99.90
24800;DHT22;12897;50.812;4.430;2023-02-21T17:51:47;8.30;99.90
24800;DHT22;12897;50.812;4.430;2023-02-21T17:54:17;8.20;99.90
24800;DHT22;12897;50.812;4.430;2023-02-21T17:56:46;8.20;99.90
24800;DHT22;12897;50.812;4.430;2023-02-21T17:59:14;8.20;99.90
24800;DHT22;12897;50.812;4.430;2023-02-21T18:01:41;8.10;99.90
24800;DHT22;12897;50.812;4.430;2023-02-21T18:04:10;8.10;99.90
24800;DHT22;12897;50.812;4.430;2023-02-21T18:06:39;8.00;99.90
24800;DHT22;12897;50.812;4.430;2023-02-21T18:09:08;7.90;99.90
24800;DHT22;12897;50.812;4.430;2023-02-21T18:11:36;7.90;99.90
24800;DHT22;12897;50.812;4.430;2023-02-21T18:14:04;7.90;99.90
24800;DHT22;12897;50.812;4.430;2023-02-21T18:16:32;7.80;99.90
24800;DHT22;12897;50.812;4.430;2023-02-21T18:18:59;7.80;99.90
24800;DHT22;12897;50.812;4.430;2023-02-21T18:21:27;7.70;99.90